Time;durP1;ratioP1;P1;durP2;ratioP2;P2;SDS_P1;SDS_P2;PMS_P1;PMS_P2;Temp;Humidity;BMP_temperature;BMP_pressure;BME280_temperature;BME280_humidity;BME280_pressure;Samples;Min_cycle;Max_cycle;Signal;HPM_P1;HPM_P2
2021/12/30 00:00:57;;;;;;;36.92;19.45;;;;;;;-12.33;73.42;100084.66;4867049;29;20032;-59
2021/12/30 00:03:23;;;;;;;31.70;16.73;;;;;;;-12.18;74.12;100106.56;4867720;29;20033;-58
2021/12/30 00:05:52;;;;;;;34.20;17.77;;;;;;;-12.06;73.14;100101.59;4867894;29;20345;-58
2021/12/30 00:08:18;;;;;;;38.05;18.92;;;;;;;-12.16;74.21;100112.50;4867554;29;20030;-59
2021/12/30 00:10:44;;;;;;;32.53;17.40;;;;;;;-11.98;73.51;100108.06;4866498;29;20029;-59
2021/12/30 00:13:10;;;;;;;29.63;16.67;;;;;;;-12.01;73.90;100108.69;4865830;29;20314;-58
2021/12/30 00:15:36;;;;;;;32.20;17.10;;;;;;;-12.13;73.48;100109.38;4866906;29;20025;-58
2021/12/30 00:18:03;;;;;;;30.17;17.08;;;;;;;-12.09;74.35;100103.88;4866562;29;20072;-58
2021/12/30 00:20:29;;;;;;;30.77;17.30;;;;;;;-12.10;74.63;100092.16;4852910;29;20025;-59
2021/12/30 00:22:54;;;;;;;33.58;17.23;;;;;;;-11.95;74.33;100093.28;4866779;29;20026;-58
2021/12/30 00:25:20;;;;;;;27.40;16.17;;;;;;;-12.16;74.28;100097.53;4850976;29;20030;-59
2021/12/30 00:27:46;;;;;;;34.03;17.95;;;;;;;-11.95;73.29;100113.25;4868327;29;20056;-59
2021/12/30 00:30:13;;;;;;;31.73;17.98;;;;;;;-11.98;73.33;100103.06;4869806;29;20234;-58
2021/12/30 00:32:39;;;;;;;31.50;16.70;;;;;;;-11.83;73.34;100101.66;4870064;29;20036;-57
2021/12/30 00:35:06;;;;;;;33.45;16.98;;;;;;;-11.87;74.51;100097.19;4869553;29;20373;-58
2021/12/30 00:37:31;;;;;;;31.08;17.08;;;;;;;-11.70;72.76;100102.56;4868894;29;20045;-59
2021/12/30 00:39:57;;;;;;;28.33;16.23;;;;;;;-11.58;73.58;100105.97;4854226;29;20030;-58
2021/12/30 00:42:22;;;;;;;29.80;16.88;;;;;;;-11.52;73.12;100091.41;4869101;29;20068;-59
2021/12/30 00:44:48;;;;;;;33.38;18.15;;;;;;;-11.57;73.25;100086.84;4869095;29;20049;-58
2021/12/30 00:47:14;;;;;;;29.33;17.25;;;;;;;-11.56;73.38;100101.06;4869088;29;20044;-58
2021/12/30 00:49:39;;;;;;;31.17;16.08;;;;;;;-11.36;72.76;100107.53;4868736;29;20030;-57
2021/12/30 00:52:05;;;;;;;32.90;16.83;;;;;;;-11.39;73.59;100093.16;4869565;29;20040;-57
2021/12/30 00:54:31;;;;;;;32.15;16.52;;;;;;;-11.49;72.81;100099.13;4869762;29;20037;-57
2021/12/30 00:56:56;;;;;;;34.08;17.80;;;;;;;-11.35;72.26;100096.78;4868974;29;20061;-57
2021/12/30 00:59:22;;;;;;;33.33;17.67;;;;;;;-11.36;73.29;100087.53;4869836;29;20041;-58
2021/12/30 01:01:47;;;;;;;32.88;17.92;;;;;;;-11.35;71.87;100101.78;4869541;29;20343;-58
2021/12/30 01:04:13;;;;;;;32.97;17.05;;;;;;;-11.41;71.87;100098.81;4869551;29;20333;-58
2021/12/30 01:06:39;;;;;;;33.65;17.98;;;;;;;-11.40;71.92;100103.94;4869530;29;20025;-58
2021/12/30 01:09:05;;;;;;;37.50;17.63;;;;;;;-11.61;73.66;100103.25;4869589;29;20058;-58
2021/12/30 01:11:31;;;;;;;32.13;17.95;;;;;;;-11.54;72.95;100099.53;4869592;29;20078;-58
2021/12/30 01:14:02;;;;;;;33.35;17.42;;;;;;;-11.86;74.24;100101.41;4851518;29;20037;-59
2021/12/30 01:16:30;;;;;;;;;;;;;;;-11.73;74.05;100104.84;4870110;29;20029;-58
2021/12/30 01:21:42;;;;;;;36.40;18.65;;;;;;;-11.79;74.11;100102.75;4853455;29;20076;-59
2021/12/30 01:24:09;;;;;;;33.38;17.85;;;;;;;-11.47;74.63;100091.75;4869146;29;20262;-58
2021/12/30 01:26:35;;;;;;;33.15;18.17;;;;;;;-11.54;74.54;100092.06;4854306;29;20042;-59
2021/12/30 01:29:01;;;;;;;38.10;18.92;;;;;;;-11.43;73.16;100082.84;4869250;29;20030;-59
2021/12/30 01:31:26;;;;;;;29.52;16.88;;;;;;;-11.57;74.47;100087.72;4868222;29;20037;-59
2021/12/30 01:33:52;;;;;;;37.65;17.42;;;;;;;-11.64;73.23;100085.53;4868801;29;20074;-59
2021/12/30 01:36:18;;;;;;;35.50;18.60;;;;;;;-11.54;73.22;100064.56;4868943;29;20263;-59
2021/12/30 01:38:45;;;;;;;34.40;18.23;;;;;;;-11.38;73.27;100087.41;4868958;29;20094;-59
2021/12/30 01:41:11;;;;;;;30.98;18.55;;;;;;;-11.31;72.92;100083.75;4869120;29;20045;-59
2021/12/30 01:43:37;;;;;;;37.08;18.55;;;;;;;-11.37;73.26;100093.28;4868753;29;20056;-58
2021/12/30 01:46:04;;;;;;;35.28;19.20;;;;;;;-11.52;72.89;100041.44;4851695;29;20025;-57
2021/12/30 01:48:30;;;;;;;34.30;18.42;;;;;;;-11.29;72.71;100075.56;4867954;29;20053;-58
2021/12/30 01:50:56;;;;;;;33.15;17.17;;;;;;;-11.48;74.18;100070.03;4868177;29;20052;-58
2021/12/30 01:53:22;;;;;;;31.73;17.98;;;;;;;-11.58;73.78;100076.00;4867786;29;20037;-57
2021/12/30 01:55:49;;;;;;;37.55;18.95;;;;;;;-11.41;74.56;100076.31;4868969;29;20056;-58
2021/12/30 01:58:16;;;;;;;37.05;19.95;;;;;;;-11.53;73.40;100067.19;4868754;29;20025;-58
2021/12/30 02:00:44;;;;;;;37.97;18.73;;;;;;;-11.70;73.86;100065.09;4850063;29;20345;-57
2021/12/30 02:03:11;;;;;;;33.58;18.48;;;;;;;-11.48;73.63;100063.41;4868155;29;20041;-57
2021/12/30 02:05:38;;;;;;;40.20;21.17;;;;;;;-11.35;73.63;100060.16;4868211;29;20395;-58
2021/12/30 02:08:06;;;;;;;35.22;18.15;;;;;;;-11.40;74.14;100096.44;4851522;29;20069;-57
2021/12/30 02:10:31;;;;;;;30.73;17.27;;;;;;;-11.40;74.49;100068.97;4868826;29;20121;-57
2021/12/30 02:12:58;;;;;;;34.83;18.70;;;;;;;-11.29;73.41;100065.56;4868736;29;20041;-57
2021/12/30 02:15:23;;;;;;;34.90;17.95;;;;;;;-11.32;74.50;100072.00;4867931;29;20026;-57
2021/12/30 02:17:51;;;;;;;34.55;18.25;;;;;;;-11.51;74.01;100054.81;4867384;29;20150;-58
2021/12/30 02:20:51;;;;;;;35.65;19.42;;;;;;;-11.18;73.40;100065.50;4868641;29;20315;-58
2021/12/30 02:23:28;;;;;;;32.33;18.50;;;;;;;-11.45;73.55;100015.28;4861659;29;20121;-57
2021/12/30 02:25:57;;;;;;;33.92;18.52;;;;;;;-11.65;74.72;99979.75;4866239;29;20053;-57
2021/12/30 02:28:26;;;;;;;39.60;18.85;;;;;;;-11.47;74.12;99996.78;4867362;29;20025;-58
2021/12/30 02:30:55;;;;;;;37.75;19.35;;;;;;;-11.13;73.29;100077.56;4868658;29;20248;-58
2021/12/30 02:33:21;;;;;;;33.38;18.23;;;;;;;-11.05;74.64;100055.59;4852301;29;20030;-58
2021/12/30 02:35:47;;;;;;;39.95;19.15;;;;;;;-11.17;73.61;100057.22;4868671;29;20033;-57
2021/12/30 02:38:14;;;;;;;33.70;19.30;;;;;;;-11.00;74.84;100044.28;4868484;29;20030;-57
2021/12/30 02:40:53;;;;;;;34.03;17.80;;;;;;;-11.04;73.57;100068.94;4868267;29;20100;-56
2021/12/30 02:43:21;;;;;;;33.72;17.08;;;;;;;-11.27;73.75;99990.72;4868429;29;20269;-57
2021/12/30 02:45:48;;;;;;;34.50;18.63;;;;;;;-10.83;74.03;100044.56;4868437;29;20041;-58
2021/12/30 02:48:25;;;;;;;30.88;17.20;;;;;;;-10.85;74.60;100056.97;4868423;29;20033;-58
2021/12/30 02:50:53;;;;;;;34.65;18.63;;;;;;;-10.77;73.33;100042.53;4868495;29;20580;-58
2021/12/30 02:53:20;;;;;;;31.98;17.90;;;;;;;-10.76;73.96;100034.22;4868353;29;20033;-58
2021/12/30 02:55:47;;;;;;;32.40;17.48;;;;;;;-10.74;75.06;100031.84;4867806;29;20104;-59
2021/12/30 02:58:13;;;;;;;36.03;18.38;;;;;;;-10.78;74.19;100030.78;4866987;29;20044;-57
2021/12/30 03:00:39;;;;;;;35.55;18.88;;;;;;;-10.77;75.32;100040.03;4867220;29;20110;-58
2021/12/30 03:03:05;;;;;;;30.67;16.55;;;;;;;-10.72;74.08;100033.69;4848417;29;20051;-58
2021/12/30 03:05:32;;;;;;;29.50;16.45;;;;;;;-10.77;73.20;100032.53;4861770;29;20086;-59
2021/12/30 03:07:57;;;;;;;31.92;17.17;;;;;;;-10.75;73.95;100033.47;4867097;29;20033;-58
2021/12/30 03:10:27;;;;;;;30.27;16.92;;;;;;;-11.16;73.87;99981.47;4868183;29;20134;-58
2021/12/30 03:12:57;;;;;;;31.15;17.45;;;;;;;-10.82;75.32;100013.81;4868904;29;20033;-58
2021/12/30 03:15:24;;;;;;;32.17;17.35;;;;;;;-10.84;73.71;100020.34;4868185;29;20026;-57
2021/12/30 03:17:50;;;;;;;35.03;17.45;;;;;;;-10.68;73.42;100032.28;4870438;29;20025;-58
2021/12/30 03:20:16;;;;;;;31.50;17.15;;;;;;;-10.54;74.93;100030.72;4871838;29;20037;-58
2021/12/30 03:22:43;;;;;;;31.27;17.08;;;;;;;-11.02;73.90;99984.94;4871277;29;20116;-58
2021/12/30 03:25:12;;;;;;;32.10;17.23;;;;;;;-10.61;73.97;100010.28;4871309;29;20042;-58
2021/12/30 03:27:38;;;;;;;27.63;16.73;;;;;;;-10.55;74.75;100028.97;4871292;29;20090;-58
2021/12/30 03:30:07;;;;;;;33.17;17.40;;;;;;;-10.80;75.05;99977.25;4871115;29;20033;-57
2021/12/30 03:32:33;;;;;;;30.13;17.35;;;;;;;-10.53;73.60;100034.94;4854970;29;20041;-57
2021/12/30 03:34:58;;;;;;;32.42;16.55;;;;;;;-10.46;73.99;100034.59;4869777;29;20071;-58
2021/12/30 03:37:24;;;;;;;33.88;16.73;;;;;;;-10.35;73.83;100033.69;4870941;29;20224;-58
2021/12/30 03:39:50;;;;;;;29.10;16.75;;;;;;;-10.21;74.54;100033.72;4871249;29;20043;-57
2021/12/30 03:42:16;;;;;;;31.55;16.77;;;;;;;-10.47;75.31;100028.72;4871213;29;20053;-58
2021/12/30 03:44:44;;;;;;;34.80;17.63;;;;;;;-10.41;74.11;100056.66;4870456;29;20041;-58
2021/12/30 03:47:16;;;;;;;31.38;17.02;;;;;;;-10.32;74.10;100028.00;4871062;29;20314;-58
2021/12/30 03:49:44;;;;;;;32.78;17.42;;;;;;;-10.23;74.33;100021.09;4871003;29;20322;-57
2021/12/30 03:52:11;;;;;;;31.48;18.00;;;;;;;-10.30;74.95;100019.81;4868313;29;20043;-59
2021/12/30 03:54:37;;;;;;;27.48;17.05;;;;;;;-10.25;74.44;100023.47;4870383;29;20033;-57
2021/12/30 03:57:03;;;;;;;32.15;16.80;;;;;;;-10.49;74.56;100011.88;4870301;29;20041;-58
2021/12/30 03:59:29;;;;;;;27.27;15.68;;;;;;;-10.40;74.04;100020.00;4870788;29;20037;-58
2021/12/30 04:01:54;;;;;;;295.05;149.70;;;;;;;-10.39;75.96;100011.72;4870804;29;20521;-58
2021/12/30 04:04:20;;;;;;;52.50;28.65;;;;;;;-10.45;74.83;100014.66;4870641;29;20032;-58
2021/12/30 04:06:45;;;;;;;37.03;19.02;;;;;;;-10.31;74.40;100013.06;4869415;29;20032;-57
2021/12/30 04:09:12;;;;;;;34.38;17.73;;;;;;;-10.22;75.38;100015.31;4869710;29;20022;-57
2021/12/30 04:11:37;;;;;;;30.70;16.95;;;;;;;-10.65;75.97;99999.97;4869627;29;20057;-58
2021/12/30 04:14:04;;;;;;;31.67;17.33;;;;;;;-10.56;75.14;100002.22;4871393;29;20037;-58
2021/12/30 04:16:30;;;;;;;31.50;17.38;;;;;;;-10.47;74.87;99988.69;4853893;29;20032;-59
2021/12/30 04:18:56;;;;;;;30.33;17.27;;;;;;;-10.31;75.03;99992.19;4870031;29;20041;-57
2021/12/30 04:21:23;;;;;;;28.83;16.65;;;;;;;-10.23;74.79;99988.56;4854766;29;20213;-58
2021/12/30 04:23:48;;;;;;;33.53;16.98;;;;;;;-10.32;75.93;99992.94;4869090;29;20034;-56
2021/12/30 04:26:14;;;;;;;32.03;17.08;;;;;;;-10.27;74.26;99994.97;4869327;29;20037;-57
2021/12/30 04:28:40;;;;;;;34.30;17.85;;;;;;;-10.39;74.17;99993.34;4857642;29;20026;-57
2021/12/30 04:31:06;;;;;;;35.20;17.80;;;;;;;-10.45;74.93;99989.63;4869176;29;20025;-56
2021/12/30 04:33:31;;;;;;;33.40;17.08;;;;;;;-10.66;77.25;99990.69;4869945;29;20033;-56
2021/12/30 04:35:57;;;;;;;30.55;16.33;;;;;;;-10.77;78.00;99988.34;4853605;29;20337;-57
2021/12/30 04:38:25;;;;;;;30.63;16.52;;;;;;;-10.53;76.78;99994.91;4869864;29;20108;-57
2021/12/30 04:40:51;;;;;;;33.33;18.08;;;;;;;-10.45;77.17;99988.78;4869875;29;20053;-57
2021/12/30 04:43:17;;;;;;;28.73;17.27;;;;;;;-10.34;75.79;99994.53;4869903;29;20068;-57
2021/12/30 04:45:43;;;;;;;29.73;16.50;;;;;;;-10.17;76.63;100001.47;4869714;29;20029;-57
2021/12/30 04:48:10;;;;;;;31.27;18.65;;;;;;;-10.24;77.07;100012.72;4869504;29;20048;-57
2021/12/30 04:50:36;;;;;;;32.42;16.55;;;;;;;-10.00;75.98;100011.72;4869992;29;20037;-57
2021/12/30 04:53:02;;;;;;;33.00;16.67;;;;;;;-10.35;76.14;100012.81;4869344;29;20021;-57
2021/12/30 04:55:28;;;;;;;29.48;16.67;;;;;;;-10.33;77.37;100011.22;4867423;29;20094;-57
2021/12/30 04:57:54;;;;;;;30.63;17.05;;;;;;;-10.15;75.94;100006.56;4855266;29;20033;-57
2021/12/30 05:00:20;;;;;;;28.17;16.67;;;;;;;-10.25;77.29;100010.97;4868686;29;20089;-59
2021/12/30 05:03:09;;;;;;;29.60;17.52;;;;;;;-10.11;77.15;100014.38;4869373;29;20041;-58
2021/12/30 05:05:32;;;;;;;28.35;16.10;;;;;;;-10.22;77.74;100010.31;4885121;29;20124;-58
2021/12/30 05:07:58;;;;;;;27.75;15.75;;;;;;;-10.16;76.55;100000.72;4868472;29;20041;-58
2021/12/30 05:10:23;;;;;;;32.72;16.33;;;;;;;-10.45;76.99;99988.78;4868156;29;20033;-58
2021/12/30 05:12:49;;;;;;;29.85;16.33;;;;;;;-10.08;76.69;99998.69;4874413;29;20086;-58
2021/12/30 05:15:15;;;;;;;29.92;15.00;;;;;;;-10.41;76.95;99935.66;4868288;29;20030;-58
2021/12/30 05:17:41;;;;;;;28.25;15.80;;;;;;;-9.92;77.49;99975.53;4869254;29;20226;-59
2021/12/30 05:20:08;;;;;;;27.48;14.85;;;;;;;-9.76;75.64;99998.31;4869238;29;20040;-58
2021/12/30 05:22:34;;;;;;;28.95;16.58;;;;;;;-9.90;76.28;100007.41;4867957;29;20041;-58
2021/12/30 05:25:02;;;;;;;29.30;16.25;;;;;;;-9.96;75.93;99989.50;4869010;29;20112;-59
2021/12/30 05:27:28;;;;;;;25.85;14.48;;;;;;;-9.89;77.66;100006.66;4868243;29;20061;-58
2021/12/30 05:29:54;;;;;;;29.63;16.65;;;;;;;-9.88;77.38;99997.50;4869283;29;20349;-58
2021/12/30 05:32:19;;;;;;;26.48;15.40;;;;;;;-9.68;77.03;100000.44;4869012;29;20029;-59
2021/12/30 05:34:45;;;;;;;31.52;16.77;;;;;;;-9.64;75.16;99988.19;4868366;29;20049;-58
2021/12/30 05:37:11;;;;;;;30.83;17.13;;;;;;;-9.85;76.16;99984.31;4867765;29;20048;-59
2021/12/30 05:39:40;;;;;;;29.73;15.27;;;;;;;-10.01;76.89;99950.75;4867419;29;20037;-59
2021/12/30 05:42:06;;;;;;;25.80;15.00;;;;;;;-9.77;76.45;99985.69;4867043;29;20041;-59
2021/12/30 05:44:32;;;;;;;26.90;14.70;;;;;;;-9.71;77.44;99983.56;4867718;29;20036;-59
2021/12/30 05:46:57;;;;;;;28.73;14.95;;;;;;;-9.63;77.02;99986.53;4867463;29;20042;-59
2021/12/30 05:49:23;;;;;;;26.38;15.60;;;;;;;-9.60;76.37;99990.13;4867812;29;20018;-59
2021/12/30 05:51:49;;;;;;;29.45;16.58;;;;;;;-9.81;78.23;99992.13;4868702;29;20034;-59
2021/12/30 05:54:14;;;;;;;29.02;16.02;;;;;;;-9.68;78.49;99995.41;4868617;29;20034;-60
2021/12/30 05:56:40;;;;;;;28.45;15.65;;;;;;;-9.65;77.81;99986.44;4868740;29;20036;-59
2021/12/30 05:59:05;;;;;;;29.02;16.10;;;;;;;-9.59;78.46;99994.38;4868452;29;20405;-59
2021/12/30 06:01:31;;;;;;;28.10;16.20;;;;;;;-9.43;77.17;99991.19;4868624;29;20252;-60
2021/12/30 06:03:56;;;;;;;30.40;15.10;;;;;;;-9.56;76.70;99991.19;4867386;29;20033;-60
2021/12/30 06:06:24;;;;;;;29.63;17.17;;;;;;;-9.92;77.42;99933.81;4868690;29;20037;-59
2021/12/30 06:08:50;;;;;;;27.88;16.05;;;;;;;-9.56;77.24;99997.06;4837567;29;20105;-59
2021/12/30 06:11:17;;;;;;;31.23;16.30;;;;;;;-9.42;77.30;100025.53;4851932;29;20041;-59
2021/12/30 06:13:42;;;;;;;30.77;15.80;;;;;;;-9.45;75.63;99970.16;4868419;29;20026;-60
2021/12/30 06:16:08;;;;;;;29.33;16.13;;;;;;;-9.43;77.45;99993.69;4868002;29;20385;-59
2021/12/30 06:18:34;;;;;;;29.88;15.60;;;;;;;-9.27;76.68;99995.53;4867325;29;20233;-59
2021/12/30 06:21:00;;;;;;;27.42;16.08;;;;;;;-9.12;75.47;99995.63;4873614;29;20032;-58
2021/12/30 06:23:25;;;;;;;27.38;15.38;;;;;;;-9.26;75.47;99994.75;4867890;29;20082;-58
2021/12/30 06:25:51;;;;;;;30.40;16.25;;;;;;;-9.16;75.80;99992.81;4867817;29;20299;-59
2021/12/30 06:28:17;;;;;;;30.45;16.45;;;;;;;-9.26;76.29;100001.41;4868284;29;20112;-58
2021/12/30 06:30:42;;;;;;;29.05;15.63;;;;;;;-9.08;74.91;100000.03;4868403;29;20052;-58
2021/12/30 06:33:08;;;;;;;26.05;15.38;;;;;;;-8.96;74.90;100009.97;4868031;29;20041;-57
2021/12/30 06:35:34;;;;;;;27.73;16.30;;;;;;;-8.97;74.87;100004.88;4867492;29;20341;-58
2021/12/30 06:38:01;;;;;;;30.25;15.05;;;;;;;-8.98;74.62;100009.00;4851993;29;20030;-58
2021/12/30 06:40:27;;;;;;;27.67;14.65;;;;;;;-9.14;75.97;99999.66;4883568;29;20045;-58
2021/12/30 06:42:53;;;;;;;25.23;14.60;;;;;;;-8.91;75.95;100017.78;4850877;29;20037;-58
2021/12/30 06:45:19;;;;;;;28.58;16.10;;;;;;;-9.03;74.97;100006.22;4850232;29;20366;-57
2021/12/30 06:47:45;;;;;;;28.75;16.23;;;;;;;-9.07;75.38;100004.28;4865872;29;20060;-58
2021/12/30 06:50:13;;;;;;;27.83;15.25;;;;;;;-8.91;75.09;100011.09;4867788;29;20138;-58
2021/12/30 06:52:40;;;;;;;26.45;14.30;;;;;;;-8.86;74.67;100009.75;4869028;29;20226;-59
2021/12/30 06:55:07;;;;;;;34.22;16.60;;;;;;;-8.92;75.38;100006.88;4870773;29;20337;-59
2021/12/30 06:57:33;;;;;;;30.70;16.40;;;;;;;-8.85;75.07;99998.97;4863954;29;20072;-57
2021/12/30 06:59:58;;;;;;;25.73;14.95;;;;;;;-8.72;75.80;99994.66;4855167;29;20037;-57
2021/12/30 07:02:24;;;;;;;27.80;16.05;;;;;;;-8.61;75.01;99998.69;4871727;29;20055;-58
2021/12/30 07:04:50;;;;;;;29.85;14.77;;;;;;;-8.68;75.28;99999.09;4871694;29;20251;-57
2021/12/30 07:07:15;;;;;;;26.30;14.90;;;;;;;-8.60;73.98;99999.56;4871564;29;20018;-59
2021/12/30 07:09:41;;;;;;;25.45;15.10;;;;;;;-8.63;75.18;99989.34;4870692;29;20171;-56
2021/12/30 07:12:07;;;;;;;27.92;16.25;;;;;;;-8.58;74.35;100005.53;4871737;29;20052;-56
2021/12/30 07:14:33;;;;;;;33.45;16.55;;;;;;;-8.38;74.23;100005.06;4871289;29;20310;-55
2021/12/30 07:16:58;;;;;;;29.80;16.80;;;;;;;-8.34;73.76;100011.13;4870368;29;20100;-56
2021/12/30 07:19:24;;;;;;;32.40;15.43;;;;;;;-8.27;74.45;100007.34;4870452;29;20076;-55
2021/12/30 07:21:50;;;;;;;31.60;16.27;;;;;;;-8.25;74.29;100006.66;4870455;29;20036;-56
2021/12/30 07:24:17;;;;;;;26.75;15.23;;;;;;;-8.15;75.14;100008.94;4856820;29;20237;-58
2021/12/30 07:26:43;;;;;;;31.40;15.48;;;;;;;-8.10;75.53;100006.66;4870176;29;20022;-58
2021/12/30 07:29:08;;;;;;;31.75;16.70;;;;;;;-8.43;74.49;100003.06;4870076;29;20037;-58
2021/12/30 07:31:34;;;;;;;30.00;16.23;;;;;;;-8.28;74.29;100013.13;4854920;29;20033;-56
2021/12/30 07:34:00;;;;;;;29.77;15.13;;;;;;;-8.35;75.57;100011.88;4860981;29;20097;-57
2021/12/30 07:36:25;;;;;;;28.20;15.95;;;;;;;-8.18;75.01;100012.88;4871191;29;20040;-56
2021/12/30 07:38:51;;;;;;;30.60;16.23;;;;;;;-8.12;74.44;100008.25;4870592;29;20029;-57
2021/12/30 07:41:17;;;;;;;31.77;16.35;;;;;;;-8.17;74.93;100007.94;4869790;29;20245;-57
2021/12/30 07:43:43;;;;;;;32.08;17.00;;;;;;;-8.23;75.04;100005.09;4854368;29;20174;-57
2021/12/30 07:46:10;;;;;;;30.27;15.95;;;;;;;-8.26;75.10;100006.56;4855496;29;20025;-56
2021/12/30 07:48:37;;;;;;;40.42;17.45;;;;;;;-8.27;74.49;100018.25;4869871;29;20029;-55
2021/12/30 07:51:04;;;;;;;27.30;15.68;;;;;;;-8.21;75.12;100008.56;4854512;29;20026;-56
2021/12/30 07:53:30;;;;;;;34.25;18.05;;;;;;;-8.05;76.05;100016.97;4868470;29;20082;-56
2021/12/30 07:55:56;;;;;;;32.53;16.10;;;;;;;-8.06;74.91;100012.75;4871027;29;20025;-57
2021/12/30 07:58:21;;;;;;;31.30;16.70;;;;;;;-8.24;74.10;100018.41;4870685;29;20211;-57
2021/12/30 08:00:47;;;;;;;35.03;17.52;;;;;;;-8.64;75.25;100007.69;4865605;29;20057;-56
2021/12/30 08:03:13;;;;;;;38.22;17.80;;;;;;;-8.57;75.49;100023.19;4862760;29;20033;-60
2021/12/30 08:05:39;;;;;;;35.22;18.90;;;;;;;-8.28;75.88;100025.69;4836793;29;20608;-57
2021/12/30 08:08:04;;;;;;;32.92;17.42;;;;;;;-8.42;75.16;100019.84;4865320;29;20105;-56
2021/12/30 08:10:30;;;;;;;35.65;17.20;;;;;;;-8.61;76.82;100026.28;4866716;29;20033;-56
2021/12/30 08:12:56;;;;;;;33.33;18.05;;;;;;;-8.35;76.34;100022.81;4864371;29;20040;-58
2021/12/30 08:15:22;;;;;;;40.22;18.38;;;;;;;-8.25;76.27;100019.22;4860981;29;20041;-56
2021/12/30 08:17:49;;;;;;;34.85;18.25;;;;;;;-8.29;77.04;100026.44;4863898;29;20064;-58
2021/12/30 08:20:16;;;;;;;38.53;18.33;;;;;;;-8.15;76.38;100025.66;4852382;29;20317;-59
2021/12/30 08:22:42;;;;;;;36.00;18.40;;;;;;;-8.09;75.83;100025.13;4863640;29;20336;-58
2021/12/30 08:25:09;;;;;;;38.40;18.75;;;;;;;-8.01;76.30;100026.44;4864153;29;20029;-57
2021/12/30 08:27:35;;;;;;;41.40;20.17;;;;;;;-8.16;75.55;100019.75;4865609;29;20042;-58
2021/12/30 08:30:01;;;;;;;38.53;19.20;;;;;;;-8.16;76.08;100002.16;4860474;29;20030;-58
2021/12/30 08:32:29;;;;;;;39.70;19.92;;;;;;;-8.21;76.48;100008.56;4853197;29;20042;-56
2021/12/30 08:34:55;;;;;;;40.70;20.25;;;;;;;-8.27;77.04;99998.16;4853024;29;20079;-56
2021/12/30 08:37:20;;;;;;;40.45;20.90;;;;;;;-8.37;76.38;100008.44;4863623;29;20033;-57
2021/12/30 08:39:46;;;;;;;38.00;18.30;;;;;;;-8.21;76.64;99998.53;4862192;29;20025;-59
2021/12/30 08:42:19;;;;;;;36.83;19.13;;;;;;;-8.07;77.13;100004.34;4857428;29;20034;-57
2021/12/30 08:44:45;;;;;;;39.40;19.38;;;;;;;-8.04;76.11;100001.13;4869402;29;20041;-57
2021/12/30 08:47:11;;;;;;;40.25;19.48;;;;;;;-7.87;76.31;99995.44;4867668;29;20037;-58
2021/12/30 08:49:41;;;;;;;38.97;19.63;;;;;;;-7.90;76.17;100000.28;4868451;29;20322;-57
2021/12/30 08:52:07;;;;;;;37.65;19.20;;;;;;;-7.77;76.29;99998.47;4852437;29;20100;-57
2021/12/30 08:54:35;;;;;;;40.40;19.65;;;;;;;-7.85;75.94;100006.44;4868514;29;20033;-58
2021/12/30 08:57:01;;;;;;;39.05;20.92;;;;;;;-7.66;75.92;100004.97;4868512;29;20045;-58
2021/12/30 08:59:26;;;;;;;43.08;20.42;;;;;;;-7.72;75.24;100003.00;4868093;29;20270;-57
2021/12/30 09:01:52;;;;;;;38.85;18.98;;;;;;;-7.74;76.24;100001.16;4868506;29;20034;-58
2021/12/30 09:04:17;;;;;;;42.60;20.63;;;;;;;-7.68;76.31;99996.47;4867773;29;20364;-59
2021/12/30 09:06:43;;;;;;;36.92;19.38;;;;;;;-7.42;75.64;99995.44;4867505;29;20287;-59
2021/12/30 09:09:08;;;;;;;36.13;19.98;;;;;;;-7.35;75.34;99992.47;4868245;29;20026;-59
2021/12/30 09:11:34;;;;;;;41.05;20.02;;;;;;;-7.57;75.68;99990.41;4867271;29;20093;-57
2021/12/30 09:14:00;;;;;;;43.15;20.65;;;;;;;-7.43;74.80;99987.81;4868407;29;20341;-59
2021/12/30 09:16:25;;;;;;;42.55;21.38;;;;;;;-7.51;74.86;99987.34;4867612;29;20033;-58
2021/12/30 09:18:51;;;;;;;50.22;21.88;;;;;;;-7.48;74.39;99990.03;4868069;29;20033;-57
2021/12/30 09:21:16;;;;;;;40.15;20.02;;;;;;;-7.51;75.48;99978.19;4868117;29;20377;-58
2021/12/30 09:23:42;;;;;;;47.50;22.55;;;;;;;-7.60;75.88;99999.44;4868256;29;20033;-58
2021/12/30 09:26:07;;;;;;;43.58;21.33;;;;;;;-7.51;75.48;99979.81;4868306;29;20215;-58
2021/12/30 09:28:33;;;;;;;45.05;22.33;;;;;;;-7.41;75.00;99982.09;4868167;29;20037;-56
2021/12/30 09:30:59;;;;;;;40.75;20.92;;;;;;;-7.21;75.39;99994.88;4868247;29;20662;-58
2021/12/30 09:33:25;;;;;;;41.25;21.58;;;;;;;-7.13;75.31;99993.63;4866919;29;20424;-56
2021/12/30 09:35:50;;;;;;;41.47;21.55;;;;;;;-7.07;74.73;99978.00;4850456;29;20341;-59
2021/12/30 09:38:16;;;;;;;45.03;21.67;;;;;;;-7.14;74.71;99991.91;4865254;29;20041;-57
2021/12/30 09:40:42;;;;;;;41.05;22.48;;;;;;;-7.29;74.16;99984.41;4867830;29;20036;-58
2021/12/30 09:43:09;;;;;;;47.58;23.15;;;;;;;-7.38;75.49;99966.25;4868116;29;20097;-58
2021/12/30 09:45:38;;;;;;;42.75;21.48;;;;;;;-7.29;75.12;99987.75;4868011;29;20215;-57
2021/12/30 09:48:09;;;;;;;48.60;22.10;;;;;;;-7.59;74.89;99906.47;4867065;29;20117;-58
2021/12/30 09:50:43;;;;;;;47.92;23.83;;;;;;;-7.84;75.81;99894.22;4867639;29;20052;-58
2021/12/30 09:53:09;;;;;;;44.58;21.20;;;;;;;-7.64;75.46;99948.09;4866679;29;20126;-58
2021/12/30 09:55:36;;;;;;;44.13;23.00;;;;;;;-7.34;76.31;99959.00;4851432;29;20048;-59
2021/12/30 09:58:03;;;;;;;50.40;22.58;;;;;;;-7.09;76.00;99962.81;4852258;29;20025;-60
2021/12/30 10:00:29;;;;;;;46.38;22.40;;;;;;;-7.01;75.94;99960.69;4866881;29;20120;-58
2021/12/30 10:02:55;;;;;;;46.47;22.63;;;;;;;-7.00;74.46;99959.94;4866674;29;20084;-58
2021/12/30 10:05:29;;;;;;;42.67;21.52;;;;;;;-6.91;75.39;99947.84;4867797;29;20040;-61
2021/12/30 10:08:19;;;;;;;49.20;24.30;;;;;;;-7.07;75.33;99947.81;4867935;29;20068;-60
2021/12/30 10:10:52;;;;;;;45.80;21.55;;;;;;;-7.53;74.67;99866.56;4861986;29;20053;-60
2021/12/30 10:13:29;;;;;;;40.95;21.45;;;;;;;-6.91;75.19;99955.41;4866784;29;20155;-58
2021/12/30 10:16:04;;;;;;;45.47;23.77;;;;;;;-7.31;74.99;99896.28;4867202;29;20038;-60
2021/12/30 10:18:54;;;;;;;45.72;22.85;;;;;;;-7.07;75.63;99946.13;4867504;29;20057;-60
2021/12/30 10:21:38;;;;;;;47.33;21.75;;;;;;;-7.02;75.29;99941.38;4867123;29;20040;-61
2021/12/30 10:24:07;;;;;;;42.72;22.05;;;;;;;-7.05;74.91;99937.03;4867597;29;20049;-62
2021/12/30 10:26:56;;;;;;;45.20;22.52;;;;;;;-6.95;75.24;99939.25;4867269;29;20045;-60
2021/12/30 10:29:21;;;;;;;45.38;21.85;;;;;;;-7.22;76.38;99935.28;4869332;29;20033;-64
2021/12/30 10:31:48;;;;;;;40.65;21.40;;;;;;;-7.33;77.20;99930.53;4871229;29;20063;-62
2021/12/30 10:34:16;;;;;;;45.38;23.33;;;;;;;-7.17;77.47;99932.22;4870736;29;20076;-60
2021/12/30 10:36:48;;;;;;;40.17;21.17;;;;;;;-7.44;77.68;99873.75;4871011;29;20033;-61
2021/12/30 10:39:31;;;;;;;46.05;22.85;;;;;;;-7.22;77.51;99890.00;4871115;29;20037;-60
2021/12/30 10:42:05;;;;;;;46.63;22.08;;;;;;;-7.19;77.38;99903.59;4871277;29;20104;-60
2021/12/30 10:44:53;;;;;;;46.50;22.15;;;;;;;-6.97;77.05;99894.66;4859324;29;20318;-60
2021/12/30 10:47:21;;;;;;;42.88;22.13;;;;;;;-6.78;77.85;99902.38;4872916;29;20030;-59
2021/12/30 10:50:03;;;;;;;42.40;22.40;;;;;;;-7.07;76.95;99835.41;4872786;29;20234;-59
2021/12/30 10:52:30;;;;;;;44.88;20.75;;;;;;;-6.71;77.24;99892.59;4871160;29;20044;-60
2021/12/30 10:54:58;;;;;;;39.22;20.92;;;;;;;-7.21;77.23;99836.34;4871171;29;20133;-62
2021/12/30 10:57:30;;;;;;;45.63;22.73;;;;;;;-6.70;77.03;99894.34;4872444;29;20017;-60
2021/12/30 10:59:56;;;;;;;42.78;22.50;;;;;;;-6.56;76.81;99902.59;4870968;29;20038;-60
2021/12/30 11:02:26;;;;;;;45.65;22.55;;;;;;;-6.67;76.81;99918.03;4872680;29;20227;-60
2021/12/30 11:05:02;;;;;;;42.20;22.33;;;;;;;-7.02;77.33;99838.19;4871730;29;20096;-61
2021/12/30 11:07:48;;;;;;;46.00;22.15;;;;;;;-6.70;77.80;99896.84;4871503;29;20112;-61
2021/12/30 11:10:28;;;;;;;46.78;22.50;;;;;;;-6.67;77.79;99876.88;4855282;29;20034;-61
2021/12/30 11:12:53;;;;;;;40.05;22.33;;;;;;;-6.70;76.73;99884.28;4871182;29;20230;-62